Terminal Aerodrome Forecast
Issued by NWS

Home | Current Version | Previous Version | Text Only | Print | Product List | Glossary On
Versions: 1 2 3 4 5 6 7 8 9 10 11 12 13 14 15 16 17 18 19 20 21
521
FTUS42 KFFC 210531
TAFRYY
TAF
KRYY 210531Z 2106/2206 17003KT P6SM FEW007 SCT025 BKN250
     FM210800 17004KT 6SM BR BKN007 OVC015
     FM211000 16004KT 5SM BR OVC004
     FM211300 16006KT 4SM -SHRA BKN007 OVC015
      TEMPO 2115/2119 2SM TSRA SCT007 OVC015CB
     FM212100 12008KT P6SM VCSH BKN025
     FM220000 12004KT 6SM BR BKN008 OVC012
      AMD NOT SKED TIL 211200=

USA.gov is the U.S. government's official web portal to all federal, state and local government web resources and services.